Flight Track Log - Related Links

Times and Time Zones

All times are in EDT time to prevent confusion due to time zone crossing. See the UAL1177 flight status page for this flight to view local times or setup timezone preferences in your user account.

Time Position Orientation Groundspeed Altitude Reporting Facility
EDT Latitude Longitude Course Direction KTS MPH feet Rate Location/Type
Thu 10:34:07 PM 39.8934 -104.6870 360° North 188 216 5,600  Level FlightAware
Thu 10:34:23 PM 39.9080 -104.6860 North 195 224 6,100 1,826 Climbing FlightAware
Thu 10:34:30 PM 39.9137 -104.6860 360° North 201 231 6,300 1,800 Climbing FlightAware
Thu 10:34:33 PM 39.9172 -104.6870 348° North 205 236 6,400 2,182 Climbing FlightAware
Thu 10:34:41 PM 39.9243 -104.6880 354° North 209 241 6,700 2,000 Climbing FlightAware
Thu 10:34:45 PM 39.9281 -104.6880 360° North 209 241 6,800 1,714 Climbing FlightAware
Thu 10:34:48 PM 39.9311 -104.6870 14° North 210 242 6,900 1,500 Climbing FlightAware
Thu 10:34:53 PM 39.9360 -104.6870 360° North 215 247 7,000 1,500 Climbing FlightAware
Thu 10:35:08 PM 39.9513 -104.6830 11° North 226 260 7,400 1,400 Climbing FlightAware
Thu 10:35:23 PM 39.9680 -104.6800 North 244 281 7,700 1,615 Climbing FlightAware
Thu 10:35:34 PM 39.9798 -104.6770 11° North 248 285 8,100 2,609 Climbing FlightAware
Thu 10:35:46 PM 39.9936 -104.6740 North 246 283 8,700 2,000 Climbing FlightAware
Thu 10:36:01 PM 40.0113 -104.6690 12° North 264 304 9,000 1,200 Climbing FlightAware
Thu 10:36:16 PM 40.0305 -104.6650 North 284 327 9,300 1,600 Climbing FlightAware
Thu 10:36:31 PM 40.0502 -104.6600 11° North 295 339 9,800 1,385 Climbing FlightAware
Thu 10:36:55 PM 40.0822 -104.6520 11° North 302 348 10,200 1,111 Climbing FlightAware
Thu 10:36:58 PM 40.0874 -104.6520 360° North 300 345 10,300 1,714 Climbing FlightAware
Thu 10:37:02 PM 40.0925 -104.6530 351° North 299 344 10,400 1,714 Climbing FlightAware
Thu 10:37:12 PM 40.1063 -104.6580 345° North 305 351 10,700 1,500 Climbing FlightAware
Thu 10:37:18 PM 40.1142 -104.6620 339° North 311 358 10,800 1,459 Climbing FlightAware
Thu 10:37:49 PM 40.1561 -104.6890 334° Northwest 336 387 11,600 2,032 Climbing FlightAware
Thu 10:38:20 PM 40.1997 -104.7160 335° Northwest 346 398 12,900 3,049 Climbing FlightAware
Thu 10:38:50 PM 40.2437 -104.7430 335° Northwest 342 394 14,700 3,443 Climbing FlightAware
Thu 10:39:21 PM 40.2869 -104.7700 335° Northwest 339 390 16,400 2,951 Climbing FlightAware
Thu 10:39:51 PM 40.3303 -104.7970 335° Northwest 344 396 17,700 2,571 Climbing FlightAware
Thu 10:40:03 PM 40.3465 -104.8090 331° Northwest 347 399 18,200 2,250 Climbing FlightAware
Thu 10:40:39 PM 40.3947 -104.8550 324° Northwest 355 409 19,500 2,239 Climbing FlightAware
Thu 10:41:10 PM 40.4369 -104.8950 324° Northwest 364 419 20,700 2,300 Climbing FlightAware
Thu 10:41:39 PM 40.4772 -104.9320 325° Northwest 367 422 21,800 2,063 Climbing FlightAware
Thu 10:42:14 PM 40.5259 -104.9760 326° Northwest 371 427 22,900 1,754 Climbing FlightAware
Thu 10:42:44 PM 40.5691 -105.0150 326° Northwest 378 435 23,700 1,400 Climbing FlightAware
Thu 10:43:14 PM 40.6129 -105.0550 325° Northwest 389 448 24,300 1,219 Climbing FlightAware
Thu 10:43:48 PM 40.6637 -105.1010 326° Northwest 402 463 25,000 1,606 Climbing FlightAware
Thu 10:44:25 PM 40.7215 -105.1530 326° Northwest 405 466 26,200 1,714 Climbing FlightAware
Thu 10:45:12 PM 40.7920 -105.2180 325° Northwest 408 470 27,400 1,239 Climbing FlightAware
Thu 10:45:57 PM 40.8610 -105.2810 325° Northwest 418 481 28,100 988 Climbing FlightAware
Thu 10:46:37 PM 40.9100 -105.3510 313° West 417 480 28,800 1,129 Climbing FlightAware
Thu 10:47:22 PM 40.9470 -105.4580 295° West 422 486 29,700 1,200 Climbing FlightAware
Thu 10:48:02 PM 40.9800 -105.5550 294° West 425 489 30,500 1,200 Climbing FlightAware
Thu 10:48:47 PM 41.0160 -105.6620 294° West 427 491 31,400 1,129 Climbing FlightAware
Thu 10:49:27 PM 41.0490 -105.7580 295° West 431 496 32,100 1,129 Climbing FlightAware
Thu 10:50:12 PM 41.0860 -105.8680 294° West 430 495 33,000 1,129 Climbing FlightAware
Thu 10:50:52 PM 41.1180 -105.9640 294° West 431 496 33,700 1,125 Climbing FlightAware
Thu 10:51:32 PM 41.1510 -106.0610 294° West 429 494 34,500 800 Climbing FlightAware
Thu 10:52:22 PM 41.1860 -106.1690 293° West 427 491 34,900 240 Climbing FlightAware
Thu 10:53:12 PM 41.2190 -106.2720 293° West 427 491 34,900  Level FlightAware
Thu 10:53:52 PM 41.2450 -106.3540 293° West 427 491 34,900 733 Level FlightAware
Thu 10:54:42 PM 41.2960 -106.5010 295° West 415 478 36,000 660 Climbing FlightAware
Thu 10:55:32 PM 41.3270 -106.6010 292° West 415 478 36,000  Level FlightAware
Thu 10:56:12 PM 41.3530 -106.6810 293° West 415 478 36,000  Level FlightAware
Thu 10:56:52 PM 41.3780 -106.7610 293° West 415 478 36,000  Level FlightAware
Thu 10:57:32 PM 41.4040 -106.8410 293° West 415 478 36,000  Level FlightAware
Thu 10:58:12 PM 41.4290 -106.9210 293° West 415 478 36,000  Level FlightAware
Thu 10:59:02 PM 41.4610 -107.0210 293° West 415 478 36,000  Level FlightAware
Thu 10:59:42 PM 41.4870 -107.1010 293° West 415 478 36,000  Level FlightAware
Thu 11:00:22 PM 41.5120 -107.1820 292° West 415 478 36,000  Level FlightAware
Thu 11:01:02 PM 41.5380 -107.2620 293° West 415 478 36,000  Level FlightAware
Thu 11:01:42 PM 41.5630 -107.3420 293° West 415 478 36,000  Level FlightAware
Thu 11:02:32 PM 41.5950 -107.4430 293° West 415 478 36,000  Level FlightAware
Thu 11:03:12 PM 41.6210 -107.5230 294° West 415 478 36,000  Level FlightAware
Thu 11:03:52 PM 41.6460 -107.6030 293° West 415 478 36,000  Level FlightAware
Thu 11:04:39 PM 41.7403 -107.8883 293° West 415 478 36,000  Level Salt Center
Thu 11:04:55 PM 41.7467 -107.9097 292° West 412 474 36,000  Level Denver Center
Thu 11:05:56 PM 41.7947 -108.0664 292° West 410 472 36,000  Level Denver Center
Thu 11:06:42 PM 41.8272 -108.1772 292° West 402 463 36,000  Level Salt Center
Thu 11:07:43 PM 41.8694 -108.3108 293° West 406 467 36,000  Level Salt Center
Thu 11:08:45 PM 41.9192 -108.4697 293° West 413 475 36,000  Level Salt Center
Thu 11:09:46 PM 41.9600 -108.6039 292° West 410 472 36,000  Level Salt Center
Thu 11:10:47 PM 42.0003 -108.7394 292° West 410 472 36,000  Level Salt Center
Thu 11:11:49 PM 42.0472 -108.8975 292° West 409 471 36,000  Level Salt Center
Thu 11:12:50 PM 42.0875 -109.0317 292° West 408 470 36,000  Level Salt Center
Thu 11:13:52 PM 42.1350 -109.1914 292° West 411 473 36,000  Level Salt Center
Thu 11:14:53 PM 42.1744 -109.3264 292° West 408 470 36,000  Level Salt Center
Thu 11:15:54 PM 42.2203 -109.4842 291° West 407 468 36,000  Level Salt Center
Thu 11:16:56 PM 42.2589 -109.6161 292° West 398 458 36,000  Level Salt Center
Thu 11:17:57 PM 42.2975 -109.7508 291° West 401 461 36,000  Level Salt Center
Thu 11:18:59 PM 42.3422 -109.9058 291° West 398 458 36,000  Level Salt Center
Thu 11:20:00 PM 42.3817 -110.0411 292° West 403 464 36,000  Level Salt Center
Thu 11:21:01 PM 42.4264 -110.2008 291° West 407 468 36,000  Level Salt Center
Thu 11:22:03 PM 42.4664 -110.3375 292° West 408 470 36,000  Level Salt Center
Thu 11:23:04 PM 42.5042 -110.4742 291° West 407 468 36,000  Level Salt Center
Thu 11:24:05 PM 42.5492 -110.6328 291° West 404 465 36,000  Level Salt Center
Thu 11:25:07 PM 42.5872 -110.7692 291° West 405 466 36,000  Level Salt Center
Thu 11:26:08 PM 42.6308 -110.9289 290° West 404 465 36,000  Level Salt Center
Thu 11:27:09 PM 42.6678 -111.0600 291° West 407 468 36,000  Level Salt Center
Thu 11:28:11 PM 42.7103 -111.2164 290° West 406 467 36,000  Level Salt Center
Thu 11:29:12 PM 42.7531 -111.3706 291° West 406 467 36,000  Level Salt Center
Thu 11:30:13 PM 42.7900 -111.5092 290° West 407 468 36,000  Level Salt Center
Thu 11:31:15 PM 42.8278 -111.6472 291° West 407 468 36,000  Level Salt Center
Thu 11:32:16 PM 42.8714 -111.8097 290° West 410 472 36,000  Level Salt Center
Thu 11:33:17 PM 42.9092 -111.9500 290° West 411 473 36,000  Level Salt Center
Thu 11:34:19 PM 42.9456 -112.0889 290° West 408 470 36,000  Level Salt Center
Thu 11:35:20 PM 42.9883 -112.2506 290° West 406 467 36,000  Level Salt Center
Thu 11:36:21 PM 43.0283 -112.4061 289° West 403 464 36,000  Level Salt Center
Thu 11:38:00 PM 43.1052 -112.6391 294° West  Level FlightAware
Thu 11:40:38 PM 43.1836 -113.0069 288° West 400 460 36,000  Level Salt Center
Thu 11:41:40 PM 43.2183 -113.1456 289° West 401 461 36,000  Level Salt Center
Thu 11:42:41 PM 43.2592 -113.3078 289° West 403 464 36,000  Level Salt Center
Thu 11:43:42 PM 43.2939 -113.4469 289° West 402 463 36,000  Level Salt Center
Thu 11:44:43 PM 43.3339 -113.6086 289° West 400 460 36,000  Level Salt Center
Thu 11:45:00 PM 43.4160 -113.6395 288° West  Level FlightAware
Thu 11:45:45 PM 43.3675 -113.7458 289° West 397 457 36,000  Level Salt Center
Thu 11:46:46 PM 43.4008 -113.8892 288° West 402 463 36,000  Level Salt Center
Thu 11:47:47 PM 43.4364 -114.0272 290° West 399 459 36,000  Level Salt Center
Thu 11:48:48 PM 43.4750 -114.1892 288° West 402 463 36,000  Level Salt Center
Thu 11:49:49 PM 43.5083 -114.3281 288° West 400 460 36,000  Level Salt Center
Thu 11:50:51 PM 43.5481 -114.4925 288° West 402 463 36,000  Level Salt Center
Thu 11:51:52 PM 43.5811 -114.6342 288° West 403 464 36,000  Level Salt Center
Thu 11:52:53 PM 43.6256 -114.7728 294° West 410 472 36,000  Level Salt Center
Thu 11:53:54 PM 43.6772 -114.9364 294° West 416 479 36,000  Level Salt Center
Thu 11:54:55 PM 43.7217 -115.0764 294° West 417 480 36,000  Level Salt Center
Thu 11:55:57 PM 43.7650 -115.2169 293° West 413 475 36,000  Level Salt Center
Thu 11:56:58 PM 43.8161 -115.3811 293° West 415 478 36,000  Level Salt Center
Thu 11:57:59 PM 43.8606 -115.5242 293° West 420 483 36,000  Level Salt Center
Thu 11:59:01 PM 43.9122 -115.6886 294° West 416 479 36,000  Level Salt Center
Fri 12:00:01 AM 43.9550 -115.8317 293° West 418 481 36,000  Level Salt Center
Fri 12:01:03 AM 43.9989 -115.9750 293° West 418 481 36,000  Level Salt Center
Fri 12:02:04 AM 44.0500 -116.1442 293° West 421 484 36,000  Level Salt Center
Fri 12:03:05 AM 44.0933 -116.2906 292° West 425 489 36,000  Level Salt Center
Fri 12:04:06 AM 44.1381 -116.4375 293° West 428 493 36,000  Level Salt Center
Fri 12:05:07 AM 44.1881 -116.6081 292° West 423 487 36,000  Level Salt Center
Fri 12:06:09 AM 44.2317 -116.7575 292° West 430 495 36,000  Level Salt Center
Fri 12:07:10 AM 44.2753 -116.9078 292° West 434 499 36,000  Level Salt Center
Fri 12:08:11 AM 44.3269 -117.0817 293° West 434 499 36,000  Level Salt Center
Fri 12:09:12 AM 44.3708 -117.2328 292° West 436 502 36,000  Level Salt Center
Fri 12:10:13 AM 44.4139 -117.3839 292° West 435 501 36,000  Level Salt Center
Fri 12:11:15 AM 44.4644 -117.5592 292° West 434 499 36,000  Level Salt Center
Fri 12:12:16 AM 44.5069 -117.7103 292° West 436 502 36,000  Level Salt Center
Fri 12:13:17 AM 44.5497 -117.8603 292° West 434 499 36,000  Level Salt Center
Fri 12:14:18 AM 44.5989 -118.0350 292° West 430 495 36,000  Level Salt Center
Fri 12:15:19 AM 44.6436 -118.1931 292° West 431 496 36,000  Level Salt Center
Fri 12:16:21 AM 44.6856 -118.3506 291° West 432 497 36,000  Level Salt Center
Fri 12:16:40 AM 44.6942 -118.3819 291° West 434 499 36,000  Level Seattle Center
Fri 12:17:41 AM 44.7469 -118.5725 291° West 437 503 36,000  Level Seattle Center
Fri 12:18:42 AM 44.7911 -118.7294 292° West 435 501 36,000  Level Seattle Center
Fri 12:19:42 AM 44.8339 -118.8878 291° West 435 501 36,000  Level Seattle Center
Fri 12:20:43 AM 44.8761 -119.0447 291° West 432 497 36,000  Level Seattle Center
Fri 12:21:44 AM 44.9186 -119.2033 291° West 433 498 36,000 -43 Level Seattle Center
Fri 12:27:42 AM 45.1670 -120.1580 291° West 429 494 35,700 -45 Descending FlightAware
Fri 12:28:27 AM 45.1930 -120.2620 290° West 429 494 35,700  Level FlightAware
Fri 12:29:07 AM 45.2150 -120.3530 289° West 429 494 35,700  Level FlightAware
Fri 12:29:47 AM 45.2360 -120.4430 288° West 429 494 35,700  Level FlightAware
Fri 12:30:27 AM 45.2580 -120.5340 289° West 429 494 35,700  Level FlightAware
Fri 12:31:07 AM 45.2800 -120.6250 289° West 429 494 35,700  Level FlightAware
Fri 12:31:47 AM 45.3020 -120.7150 289° West 429 494 35,700  Level FlightAware
Fri 12:32:37 AM 45.3300 -120.8290 289° West 429 494 35,700  Level FlightAware
Fri 12:33:17 AM 45.3520 -120.9190 289° West 429 494 35,700  Level FlightAware
Fri 12:33:57 AM 45.3740 -121.0100 289° West 429 494 35,700  Level FlightAware
Fri 12:34:37 AM 45.3960 -121.1010 289° West 429 494 35,700  Level FlightAware
Fri 12:35:17 AM 45.4180 -121.1920 289° West 429 494 35,700  Level FlightAware
Fri 12:36:07 AM 45.4450 -121.3060 289° West 429 494 35,700  Level FlightAware
Fri 12:36:47 AM 45.4670 -121.3970 289° West 429 494 35,700  Level FlightAware
Fri 12:37:27 AM 45.4890 -121.4880 289° West 429 494 35,700 -20,060 Level FlightAware
Fri 12:37:54 AM 45.4831 -121.6589 289° West 341 392 13,300 -20,471 Descending Seattle Center
Fri 12:38:35 AM 45.4958 -121.7617 280° West 316 364 12,500 -1,082 Descending Seattle Center
Fri 12:38:55 AM 45.4975 -121.7822 277° West 320 368 12,200 -1,574 Descending Seattle Center
Fri 12:39:36 AM 45.4908 -121.8719 264° West 283 326 10,900 -1,800 Descending Seattle Center
Fri 12:39:55 AM 45.4808 -121.8883 229° Southwest 295 339 10,400 -1,869 Descending Seattle Center
Fri 12:40:37 AM 45.4456 -121.9681 238° Southwest 290 334 9,000 -1,672 Descending Seattle Center
Fri 12:40:56 AM 45.4414 -121.9806 245° Southwest 287 330 8,700 -800 Descending Seattle Center
Fri 12:41:37 AM 45.4200 -122.0650 250° West 261 300 8,200 -689 Descending Seattle Center
Fri 12:41:57 AM 45.4247 -122.0758 302° West 253 291 8,000 -1,279 Descending Seattle Center
Fri 12:42:38 AM 45.4436 -122.1478 291° West 221 254 6,900 -1,900 Descending Seattle Center
Fri 12:42:57 AM 45.4531 -122.1781 294° West 235 270 6,100 -1,791 Descending Seattle Center
Fri 12:43:45 AM 45.4675 -122.2428 288° West 218 251 4,900 -1,156 Descending Seattle Center
Fri 12:44:46 AM 45.4858 -122.3214 288° West 208 239 4,000 -893 Descending Seattle Center
Fri 12:45:46 AM 45.5108 -122.3792 302° West 165 190 3,100 -893 Descending Seattle Center
Fri 12:46:47 AM 45.5303 -122.4328 297° West 153 176 2,200 -844 Descending Seattle Center
Fri 12:47:54 AM 45.5536 -122.4942 299° West 151 174 1,300 -850 Descending Seattle Center
Fri 12:48:54 AM 45.5753 -122.5469 300° West 154 177 400 -563 Descending Seattle Center
Fri 12:50:02 AM 45.5967 -122.6019 299° West 153 176 100 -265 Descending Seattle Center

Login

Don't have an account? Register now (free) for customized features, flight alerts, and more!